sensor_id;sensor_type;location;lat;lon;timestamp;pressure;altitude;pressure_sealevel;temperature;humidity
67052;BME280;53957;47.222;18.670;2022-07-23T00:01:20;100107.47;;;21.34;67.20
67052;BME280;53957;47.222;18.670;2022-07-23T00:04:29;100105.16;;;21.36;65.95
67052;BME280;53957;47.222;18.670;2022-07-23T00:07:33;100100.91;;;21.35;65.64
67052;BME280;53957;47.222;18.670;2022-07-23T00:10:36;100097.75;;;21.33;65.61
67052;BME280;53957;47.222;18.670;2022-07-23T00:13:39;100092.97;;;21.26;66.30
67052;BME280;53957;47.222;18.670;2022-07-23T00:16:42;100098.44;;;21.30;66.18
67052;BME280;53957;47.222;18.670;2022-07-23T00:19:45;100097.97;;;21.24;66.17
67052;BME280;53957;47.222;18.670;2022-07-23T00:22:54;100100.81;;;21.12;65.99
67052;BME280;53957;47.222;18.670;2022-07-23T00:25:57;100103.44;;;20.88;66.34
67052;BME280;53957;47.222;18.670;2022-07-23T00:29:00;100097.19;;;21.04;65.35
67052;BME280;53957;47.222;18.670;2022-07-23T00:32:03;100100.50;;;20.78;65.78
67052;BME280;53957;47.222;18.670;2022-07-23T00:35:06;100100.25;;;20.67;66.44
67052;BME280;53957;47.222;18.670;2022-07-23T00:38:10;100108.72;;;20.65;67.04
67052;BME280;53957;47.222;18.670;2022-07-23T00:41:13;100103.06;;;20.54;67.81
67052;BME280;53957;47.222;18.670;2022-07-23T00:44:18;100107.22;;;20.68;67.56
67052;BME280;53957;47.222;18.670;2022-07-23T00:47:21;100102.50;;;20.45;68.50
67052;BME280;53957;47.222;18.670;2022-07-23T00:50:24;100103.41;;;20.69;66.80
67052;BME280;53957;47.222;18.670;2022-07-23T00:53:27;100095.78;;;21.10;64.78
67052;BME280;53957;47.222;18.670;2022-07-23T00:56:30;100099.72;;;20.77;66.27
67052;BME280;53957;47.222;18.670;2022-07-23T00:59:33;100103.47;;;21.08;64.09
67052;BME280;53957;47.222;18.670;2022-07-23T01:02:36;100102.91;;;20.63;67.50
67052;BME280;53957;47.222;18.670;2022-07-23T01:05:40;100101.53;;;20.53;68.38
67052;BME280;53957;47.222;18.670;2022-07-23T01:08:43;100100.72;;;20.53;69.17
67052;BME280;53957;47.222;18.670;2022-07-23T01:11:46;100102.13;;;20.47;69.21
67052;BME280;53957;47.222;18.670;2022-07-23T01:14:59;100103.62;;;20.44;69.48
67052;BME280;53957;47.222;18.670;2022-07-23T01:18:05;100104.47;;;20.48;68.92
67052;BME280;53957;47.222;18.670;2022-07-23T01:21:11;100106.69;;;20.42;69.95
67052;BME280;53957;47.222;18.670;2022-07-23T01:24:16;100095.06;;;20.42;70.10
67052;BME280;53957;47.222;18.670;2022-07-23T01:27:20;100090.09;;;20.28;70.88
67052;BME280;53957;47.222;18.670;2022-07-23T01:30:24;100091.50;;;20.22;71.33
67052;BME280;53957;47.222;18.670;2022-07-23T01:33:28;100093.53;;;20.25;71.32
67052;BME280;53957;47.222;18.670;2022-07-23T01:36:31;100095.44;;;20.24;70.94
67052;BME280;53957;47.222;18.670;2022-07-23T01:39:34;100095.44;;;20.24;71.54
67052;BME280;53957;47.222;18.670;2022-07-23T01:42:37;100094.50;;;20.17;72.15
67052;BME280;53957;47.222;18.670;2022-07-23T01:45:40;100106.81;;;20.14;71.89
67052;BME280;53957;47.222;18.670;2022-07-23T01:48:44;100102.97;;;20.15;71.91
67052;BME280;53957;47.222;18.670;2022-07-23T01:51:47;100106.34;;;20.12;72.07
67052;BME280;53957;47.222;18.670;2022-07-23T01:55:03;100096.66;;;20.11;72.35
67052;BME280;53957;47.222;18.670;2022-07-23T01:58:06;100098.88;;;20.05;73.08
67052;BME280;53957;47.222;18.670;2022-07-23T02:01:09;100101.47;;;20.02;73.38
67052;BME280;53957;47.222;18.670;2022-07-23T02:04:13;100096.34;;;19.97;74.11
67052;BME280;53957;47.222;18.670;2022-07-23T02:07:15;100101.03;;;20.00;73.73
67052;BME280;53957;47.222;18.670;2022-07-23T02:10:18;100095.03;;;19.90;73.97
67052;BME280;53957;47.222;18.670;2022-07-23T02:13:21;100100.34;;;19.87;73.50
67052;BME280;53957;47.222;18.670;2022-07-23T02:16:24;100106.25;;;19.92;71.69
67052;BME280;53957;47.222;18.670;2022-07-23T02:19:27;100102.59;;;19.85;72.43
67052;BME280;53957;47.222;18.670;2022-07-23T02:22:30;100110.81;;;19.88;72.18
67052;BME280;53957;47.222;18.670;2022-07-23T02:25:33;100106.84;;;19.70;72.83
67052;BME280;53957;47.222;18.670;2022-07-23T02:28:37;100108.28;;;19.51;72.86
67052;BME280;53957;47.222;18.670;2022-07-23T02:31:40;100102.97;;;19.55;73.14
67052;BME280;53957;47.222;18.670;2022-07-23T02:34:43;100099.31;;;19.63;72.38
67052;BME280;53957;47.222;18.670;2022-07-23T02:37:46;100101.44;;;19.70;71.01
67052;BME280;53957;47.222;18.670;2022-07-23T02:40:51;100099.34;;;19.35;72.03
67052;BME280;53957;47.222;18.670;2022-07-23T02:43:54;100105.34;;;19.28;72.12
67052;BME280;53957;47.222;18.670;2022-07-23T02:46:58;100102.78;;;19.19;72.19
67052;BME280;53957;47.222;18.670;2022-07-23T02:50:01;100101.81;;;19.40;72.07
67052;BME280;53957;47.222;18.670;2022-07-23T02:53:05;100106.50;;;19.43;72.58
67052;BME280;53957;47.222;18.670;2022-07-23T02:56:08;100098.84;;;19.45;72.80
67052;BME280;53957;47.222;18.670;2022-07-23T02:59:12;100104.34;;;19.49;71.96
67052;BME280;53957;47.222;18.670;2022-07-23T03:02:14;100105.25;;;19.24;71.66
67052;BME280;53957;47.222;18.670;2022-07-23T03:05:20;100106.88;;;19.41;70.77
67052;BME280;53957;47.222;18.670;2022-07-23T03:08:23;100105.84;;;19.46;71.53
67052;BME280;53957;47.222;18.670;2022-07-23T03:11:26;100108.16;;;19.76;69.68
67052;BME280;53957;47.222;18.670;2022-07-23T03:14:29;100103.00;;;19.71;69.55
67052;BME280;53957;47.222;18.670;2022-07-23T03:17:32;100103.91;;;19.46;71.21
67052;BME280;53957;47.222;18.670;2022-07-23T03:20:35;100098.84;;;19.45;71.94
67052;BME280;53957;47.222;18.670;2022-07-23T03:23:38;100091.34;;;19.54;71.82
67052;BME280;53957;47.222;18.670;2022-07-23T03:26:42;100087.53;;;19.55;71.86
67052;BME280;53957;47.222;18.670;2022-07-23T03:29:45;100084.81;;;19.55;72.38
67052;BME280;53957;47.222;18.670;2022-07-23T03:32:47;100097.22;;;19.56;72.24
67052;BME280;53957;47.222;18.670;2022-07-23T03:35:50;100099.22;;;19.88;70.54
67052;BME280;53957;47.222;18.670;2022-07-23T03:38:53;100106.56;;;19.75;72.32
67052;BME280;53957;47.222;18.670;2022-07-23T03:41:56;100097.34;;;19.76;72.80
67052;BME280;53957;47.222;18.670;2022-07-23T03:44:59;100104.97;;;19.86;72.86
67052;BME280;53957;47.222;18.670;2022-07-23T03:48:05;100103.91;;;19.91;73.18
67052;BME280;53957;47.222;18.670;2022-07-23T03:51:07;100108.28;;;19.95;73.36
67052;BME280;53957;47.222;18.670;2022-07-23T03:54:12;100102.88;;;20.11;72.62
67052;BME280;53957;47.222;18.670;2022-07-23T03:57:15;100111.50;;;20.17;73.22
67052;BME280;53957;47.222;18.670;2022-07-23T04:00:18;100114.66;;;20.19;73.59
67052;BME280;53957;47.222;18.670;2022-07-23T04:03:24;100110.91;;;20.24;74.65
67052;BME280;53957;47.222;18.670;2022-07-23T04:06:27;100121.09;;;20.31;74.04
67052;BME280;53957;47.222;18.670;2022-07-23T04:09:30;100110.16;;;20.43;73.21
67052;BME280;53957;47.222;18.670;2022-07-23T04:12:33;100108.72;;;20.65;72.32
67052;BME280;53957;47.222;18.670;2022-07-23T04:15:37;100115.41;;;20.52;74.40
67052;BME280;53957;47.222;18.670;2022-07-23T04:18:40;100109.53;;;20.66;73.58
67052;BME280;53957;47.222;18.670;2022-07-23T04:21:44;100108.03;;;20.68;73.56
67052;BME280;53957;47.222;18.670;2022-07-23T04:24:47;100108.56;;;20.74;73.20
67052;BME280;53957;47.222;18.670;2022-07-23T04:27:51;100111.53;;;20.69;74.63
67052;BME280;53957;47.222;18.670;2022-07-23T04:30:56;100109.84;;;20.80;73.76
67052;BME280;53957;47.222;18.670;2022-07-23T04:34:00;100108.34;;;20.83;74.29
67052;BME280;53957;47.222;18.670;2022-07-23T04:37:03;100116.03;;;20.97;75.77
67052;BME280;53957;47.222;18.670;2022-07-23T04:40:07;100110.75;;;21.04;75.41
67052;BME280;53957;47.222;18.670;2022-07-23T04:43:11;100112.53;;;21.16;73.74
67052;BME280;53957;47.222;18.670;2022-07-23T04:46:14;100113.34;;;21.39;71.56
67052;BME280;53957;47.222;18.670;2022-07-23T04:49:19;100111.53;;;21.63;71.71
67052;BME280;53957;47.222;18.670;2022-07-23T04:52:22;100114.41;;;21.74;70.24
67052;BME280;53957;47.222;18.670;2022-07-23T04:55:25;100106.62;;;21.96;69.66
67052;BME280;53957;47.222;18.670;2022-07-23T04:58:28;100120.56;;;22.17;68.45
67052;BME280;53957;47.222;18.670;2022-07-23T05:01:31;100111.75;;;22.01;67.34
67052;BME280;53957;47.222;18.670;2022-07-23T05:04:34;100117.56;;;22.76;64.53
67052;BME280;53957;47.222;18.670;2022-07-23T05:07:38;100121.13;;;23.14;63.62
67052;BME280;53957;47.222;18.670;2022-07-23T05:10:41;100122.25;;;23.10;64.48
67052;BME280;53957;47.222;18.670;2022-07-23T05:13:44;100127.81;;;23.17;63.98
67052;BME280;53957;47.222;18.670;2022-07-23T05:16:47;100129.53;;;23.02;63.82
67052;BME280;53957;47.222;18.670;2022-07-23T05:19:50;100139.88;;;23.54;63.27
67052;BME280;53957;47.222;18.670;2022-07-23T05:23:02;100138.81;;;24.03;62.87
67052;BME280;53957;47.222;18.670;2022-07-23T05:26:05;100143.88;;;24.57;60.76
67052;BME280;53957;47.222;18.670;2022-07-23T05:29:08;100147.56;;;24.86;59.10
67052;BME280;53957;47.222;18.670;2022-07-23T05:32:11;100147.38;;;25.31;56.45
67052;BME280;53957;47.222;18.670;2022-07-23T05:35:15;100145.16;;;25.73;55.19
67052;BME280;53957;47.222;18.670;2022-07-23T05:38:21;100145.94;;;25.95;52.51
67052;BME280;53957;47.222;18.670;2022-07-23T05:41:24;100145.19;;;26.06;52.96
67052;BME280;53957;47.222;18.670;2022-07-23T05:44:27;100145.97;;;26.31;53.52
67052;BME280;53957;47.222;18.670;2022-07-23T05:47:46;100149.06;;;26.55;53.86
67052;BME280;53957;47.222;18.670;2022-07-23T05:50:51;100142.06;;;26.03;52.74
67052;BME280;53957;47.222;18.670;2022-07-23T05:53:55;100135.72;;;26.93;49.98
67052;BME280;53957;47.222;18.670;2022-07-23T05:56:59;100126.34;;;26.73;51.40
67052;BME280;53957;47.222;18.670;2022-07-23T06:00:06;100131.31;;;27.18;52.26
67052;BME280;53957;47.222;18.670;2022-07-23T06:03:14;100132.56;;;26.91;50.85
67052;BME280;53957;47.222;18.670;2022-07-23T06:06:21;100134.44;;;27.87;48.00
67052;BME280;53957;47.222;18.670;2022-07-23T06:09:24;100124.53;;;27.96;49.30
67052;BME280;53957;47.222;18.670;2022-07-23T06:12:27;100120.78;;;28.25;49.74
67052;BME280;53957;47.222;18.670;2022-07-23T06:15:30;100119.50;;;28.37;48.69
67052;BME280;53957;47.222;18.670;2022-07-23T06:18:33;100120.75;;;29.01;43.44
67052;BME280;53957;47.222;18.670;2022-07-23T06:21:36;100103.97;;;28.61;45.72
67052;BME280;53957;47.222;18.670;2022-07-23T06:24:49;100107.00;;;29.36;45.04
67052;BME280;53957;47.222;18.670;2022-07-23T06:27:54;100111.66;;;29.39;46.74
67052;BME280;53957;47.222;18.670;2022-07-23T06:30:57;100115.97;;;29.67;45.04
67052;BME280;53957;47.222;18.670;2022-07-23T06:34:00;100116.06;;;29.84;46.66
67052;BME280;53957;47.222;18.670;2022-07-23T06:37:03;100119.16;;;30.13;43.25
67052;BME280;53957;47.222;18.670;2022-07-23T06:40:06;100112.88;;;30.77;37.95
67052;BME280;53957;47.222;18.670;2022-07-23T06:43:10;100113.44;;;30.68;40.22
67052;BME280;53957;47.222;18.670;2022-07-23T06:46:13;100121.22;;;30.73;41.51
67052;BME280;53957;47.222;18.670;2022-07-23T06:49:16;100118.66;;;31.23;39.86
67052;BME280;53957;47.222;18.670;2022-07-23T06:52:19;100115.53;;;31.21;38.76
67052;BME280;53957;47.222;18.670;2022-07-23T06:55:22;100107.88;;;30.72;39.63
67052;BME280;53957;47.222;18.670;2022-07-23T06:58:25;100113.56;;;31.01;39.66
67052;BME280;53957;47.222;18.670;2022-07-23T07:01:28;100110.19;;;32.12;35.30
67052;BME280;53957;47.222;18.670;2022-07-23T07:04:31;100112.84;;;33.69;34.07
67052;BME280;53957;47.222;18.670;2022-07-23T07:07:34;100106.28;;;34.68;30.42
67052;BME280;53957;47.222;18.670;2022-07-23T07:10:37;100101.13;;;33.52;33.01
67052;BME280;53957;47.222;18.670;2022-07-23T07:13:41;100111.28;;;33.81;32.63
67052;BME280;53957;47.222;18.670;2022-07-23T07:16:43;100101.09;;;36.20;28.42
67052;BME280;53957;47.222;18.670;2022-07-23T07:19:46;100099.84;;;36.12;28.76
67052;BME280;53957;47.222;18.670;2022-07-23T07:22:49;100098.56;;;35.67;29.90
67052;BME280;53957;47.222;18.670;2022-07-23T07:25:52;100093.97;;;35.32;30.57
67052;BME280;53957;47.222;18.670;2022-07-23T07:28:55;100098.91;;;33.60;31.01
67052;BME280;53957;47.222;18.670;2022-07-23T07:31:58;100098.66;;;33.80;30.57
67052;BME280;53957;47.222;18.670;2022-07-23T07:35:00;100102.03;;;34.76;29.49
67052;BME280;53957;47.222;18.670;2022-07-23T07:38:03;100092.25;;;35.66;31.87
67052;BME280;53957;47.222;18.670;2022-07-23T07:41:06;100086.19;;;34.32;30.83
67052;BME280;53957;47.222;18.670;2022-07-23T07:44:10;100093.94;;;33.16;31.33
67052;BME280;53957;47.222;18.670;2022-07-23T07:47:13;100088.63;;;34.97;29.14
67052;BME280;53957;47.222;18.670;2022-07-23T07:50:19;100090.34;;;34.72;31.97
67052;BME280;53957;47.222;18.670;2022-07-23T07:53:23;100079.25;;;34.06;31.04
67052;BME280;53957;47.222;18.670;2022-07-23T07:56:27;100088.00;;;34.71;30.49
67052;BME280;53957;47.222;18.670;2022-07-23T07:59:30;100089.44;;;34.53;31.29
67052;BME280;53957;47.222;18.670;2022-07-23T08:02:54;100085.22;;;34.93;30.17
67052;BME280;53957;47.222;18.670;2022-07-23T08:05:58;100086.69;;;34.85;29.48
67052;BME280;53957;47.222;18.670;2022-07-23T08:09:01;100081.47;;;35.18;30.71
67052;BME280;53957;47.222;18.670;2022-07-23T08:12:04;100080.44;;;35.34;29.32
67052;BME280;53957;47.222;18.670;2022-07-23T08:15:07;100079.19;;;36.13;27.79
67052;BME280;53957;47.222;18.670;2022-07-23T08:18:15;100076.06;;;35.74;28.13
67052;BME280;53957;47.222;18.670;2022-07-23T08:21:38;100086.38;;;35.64;31.52
67052;BME280;53957;47.222;18.670;2022-07-23T08:24:41;100090.28;;;36.50;28.95
67052;BME280;53957;47.222;18.670;2022-07-23T08:27:44;100089.03;;;35.86;32.88
67052;BME280;53957;47.222;18.670;2022-07-23T08:30:47;100083.34;;;35.90;33.69
67052;BME280;53957;47.222;18.670;2022-07-23T08:33:50;100089.13;;;35.45;32.90
67052;BME280;53957;47.222;18.670;2022-07-23T08:36:55;100087.47;;;35.85;34.22
67052;BME280;53957;47.222;18.670;2022-07-23T08:39:58;100093.97;;;36.10;34.07
67052;BME280;53957;47.222;18.670;2022-07-23T08:43:04;100089.47;;;35.75;34.21
67052;BME280;53957;47.222;18.670;2022-07-23T08:46:07;100091.78;;;35.77;32.28
67052;BME280;53957;47.222;18.670;2022-07-23T08:49:11;100085.66;;;36.19;33.10
67052;BME280;53957;47.222;18.670;2022-07-23T08:52:15;100083.19;;;36.12;33.83
67052;BME280;53957;47.222;18.670;2022-07-23T08:55:20;100075.78;;;36.18;29.52
67052;BME280;53957;47.222;18.670;2022-07-23T08:58:24;100080.34;;;36.68;29.18
67052;BME280;53957;47.222;18.670;2022-07-23T09:01:30;100069.00;;;36.99;28.86
67052;BME280;53957;47.222;18.670;2022-07-23T09:04:33;100077.03;;;36.45;32.78
67052;BME280;53957;47.222;18.670;2022-07-23T09:07:38;100079.16;;;36.22;32.52
67052;BME280;53957;47.222;18.670;2022-07-23T09:11:03;100087.78;;;36.34;31.85
67052;BME280;53957;47.222;18.670;2022-07-23T09:14:06;100075.09;;;36.70;31.85
67052;BME280;53957;47.222;18.670;2022-07-23T09:17:13;100077.69;;;37.16;29.21
67052;BME280;53957;47.222;18.670;2022-07-23T09:20:17;100082.47;;;36.82;29.48
67052;BME280;53957;47.222;18.670;2022-07-23T09:23:37;100086.94;;;37.22;28.79
67052;BME280;53957;47.222;18.670;2022-07-23T09:26:46;100074.25;;;37.21;27.25
67052;BME280;53957;47.222;18.670;2022-07-23T09:29:56;100080.28;;;37.29;29.11
67052;BME280;53957;47.222;18.670;2022-07-23T09:33:09;100076.50;;;37.90;30.19
67052;BME280;53957;47.222;18.670;2022-07-23T09:36:12;100071.13;;;37.29;26.56
67052;BME280;53957;47.222;18.670;2022-07-23T09:39:24;100072.88;;;36.93;26.76
67052;BME280;53957;47.222;18.670;2022-07-23T09:42:27;100064.41;;;37.20;28.22
67052;BME280;53957;47.222;18.670;2022-07-23T09:45:30;100067.31;;;36.93;29.88
67052;BME280;53957;47.222;18.670;2022-07-23T09:48:33;100058.59;;;37.33;27.74
67052;BME280;53957;47.222;18.670;2022-07-23T09:51:44;100055.78;;;37.09;31.05
67052;BME280;53957;47.222;18.670;2022-07-23T09:54:58;100059.09;;;37.32;25.39
67052;BME280;53957;47.222;18.670;2022-07-23T09:58:05;100060.13;;;37.10;25.89
67052;BME280;53957;47.222;18.670;2022-07-23T10:01:15;100056.06;;;37.20;26.24
67052;BME280;53957;47.222;18.670;2022-07-23T10:04:18;100054.69;;;36.82;26.46
67052;BME280;53957;47.222;18.670;2022-07-23T10:07:26;100060.41;;;36.69;26.12
67052;BME280;53957;47.222;18.670;2022-07-23T10:10:33;100052.91;;;37.03;29.50
67052;BME280;53957;47.222;18.670;2022-07-23T10:13:40;100045.94;;;36.65;27.26
67052;BME280;53957;47.222;18.670;2022-07-23T10:16:54;100042.78;;;37.15;29.48
67052;BME280;53957;47.222;18.670;2022-07-23T10:19:57;100034.00;;;37.17;28.99
67052;BME280;53957;47.222;18.670;2022-07-23T10:36:28;100021.22;;;38.13;26.47
67052;BME280;53957;47.222;18.670;2022-07-23T10:39:33;100014.25;;;37.78;23.54
67052;BME280;53957;47.222;18.670;2022-07-23T10:42:48;100014.50;;;37.90;24.31
67052;BME280;53957;47.222;18.670;2022-07-23T10:45:52;100026.50;;;37.96;23.09
67052;BME280;53957;47.222;18.670;2022-07-23T10:49:35;100022.94;;;38.10;22.79
67052;BME280;53957;47.222;18.670;2022-07-23T10:52:38;100014.72;;;38.31;22.23
67052;BME280;53957;47.222;18.670;2022-07-23T10:58:50;100003.19;;;38.23;23.64
67052;BME280;53957;47.222;18.670;2022-07-23T11:01:53;100003.84;;;38.48;24.50
67052;BME280;53957;47.222;18.670;2022-07-23T11:05:04;99999.72;;;38.43;24.55
